Time;durP1;ratioP1;P1;durP2;ratioP2;P2;SDS_P1;SDS_P2;PMS_P1;PMS_P2;Temp;Humidity;BMP_temperature;BMP_pressure;BME280_temperature;BME280_humidity;BME280_pressure;Samples;Min_cycle;Max_cycle;Signal;HPM_P1;HPM_P2
2023/08/25 00:01:35;;;;;;;;;25.00;23.25;;;;;26.02;72.12;100499.91;5052641;28;48090;-74
2023/08/25 00:04:00;;;;;;;;;17.50;15.75;;;;;26.02;72.19;100488.97;5045468;28;47406;-74
2023/08/25 00:06:26;;;;;;;;;10.75;10.75;;;;;25.92;72.37;100478.06;5060006;28;45329;-74
2023/08/25 00:08:51;;;;;;;;;11.00;11.00;;;;;25.97;71.83;100477.66;5060055;28;45437;-74
2023/08/25 00:11:16;;;;;;;;;10.00;10.00;;;;;25.89;72.42;100475.66;5058843;28;45526;-74
2023/08/25 00:13:42;;;;;;;;;7.00;7.00;;;;;26.03;72.65;100493.44;5073778;27;48089;-74
2023/08/25 00:16:08;;;;;;;;;10.25;10.25;;;;;25.96;72.54;100479.53;5059178;28;46251;-74
2023/08/25 00:18:34;;;;;;;;;11.50;10.25;;;;;25.95;72.50;100483.28;5060385;28;45328;-74
2023/08/25 00:20:59;;;;;;;;;9.25;9.00;;;;;25.93;72.90;100484.38;5056561;28;45771;-74
2023/08/25 00:23:25;;;;;;;;;10.75;9.25;;;;;25.84;72.89;100462.47;5058418;28;48283;-74
2023/08/25 00:25:50;;;;;;;;;9.25;9.25;;;;;25.83;73.04;100458.00;5058202;28;45410;-74
2023/08/25 00:28:16;;;;;;;;;13.00;12.00;;;;;25.94;73.08;100469.72;5058830;28;45403;-74
2023/08/25 00:30:41;;;;;;;;;10.00;10.00;;;;;25.81;73.01;100448.22;5056523;28;46164;-75
2023/08/25 00:33:06;;;;;;;;;12.50;10.50;;;;;25.87;73.22;100456.66;5066426;27;46872;-75
2023/08/25 00:35:32;;;;;;;;;10.25;10.25;;;;;25.86;73.37;100454.97;5059837;28;45369;-74
2023/08/25 00:37:58;;;;;;;;;13.50;12.50;;;;;25.94;73.42;100464.25;5061023;27;46079;-74
2023/08/25 00:40:23;;;;;;;;;11.25;8.00;;;;;25.94;73.10;100464.25;5074584;27;45762;-75
2023/08/25 00:42:48;;;;;;;;;10.25;9.00;;;;;25.82;73.84;100439.88;5059394;28;45566;-75
2023/08/25 00:45:14;;;;;;;;;11.25;11.25;;;;;25.77;73.91;100428.53;5059707;28;45387;-75
2023/08/25 00:47:40;;;;;;;;;11.75;9.75;;;;;25.84;73.60;100443.31;5058408;28;45350;-75
2023/08/25 00:50:08;;;;;;;;;9.50;8.00;;;;;25.80;73.25;100441.91;5059330;28;45522;-74
2023/08/25 00:52:34;;;;;;;;;10.75;9.50;;;;;25.89;73.46;100451.03;5052638;28;47814;-75
2023/08/25 00:55:00;;;;;;;;;11.75;11.75;;;;;25.88;73.54;100447.44;5053573;28;45509;-75
2023/08/25 00:57:25;;;;;;;;;9.50;8.25;;;;;25.89;73.61;100457.38;5058651;28;45448;-75
2023/08/25 00:59:51;;;;;;;;;7.25;7.00;;;;;25.74;74.17;100430.72;5054302;28;45588;-75
2023/08/25 01:02:16;;;;;;;;;9.75;9.75;;;;;25.76;73.45;100431.44;5056858;28;45382;-75
2023/08/25 01:04:42;;;;;;;;;9.75;9.00;;;;;25.84;74.13;100447.91;5058084;28;45477;-75
2023/08/25 01:07:07;;;;;;;;;11.75;10.50;;;;;25.82;74.12;100449.94;5058834;28;45480;-75
2023/08/25 01:09:34;;;;;;;;;6.75;6.75;;;;;25.85;73.68;100458.69;5056922;28;45377;-75
2023/08/25 01:12:14;;;;;;;;;10.00;10.00;;;;;25.68;74.21;100434.97;5057491;28;47541;-75
2023/08/25 01:14:50;;;;;;;;;10.50;9.25;;;;;25.73;74.19;100446.28;5053191;28;45530;-75
2023/08/25 01:17:27;;;;;;;;;11.25;10.25;;;;;25.86;74.31;100467.75;5057874;28;45520;-75
2023/08/25 01:19:58;;;;;;;;;8.50;8.50;;;;;25.83;74.47;100457.16;5074731;27;46058;-75
2023/08/25 01:22:36;;;;;;;;;10.00;7.50;;;;;25.85;74.67;100469.63;5052803;28;47430;-75
2023/08/25 01:25:27;;;;;;;;;10.00;8.00;;;;;25.83;74.49;100468.94;5058566;28;45597;-75
2023/08/25 01:27:55;;;;;;;;;9.25;9.25;;;;;25.78;74.61;100451.28;5076045;27;45388;-74
2023/08/25 01:30:23;;;;;;;;;10.50;8.75;;;;;25.84;75.06;100467.94;5056021;28;46829;-75
2023/08/25 01:32:49;;;;;;;;;10.00;10.00;;;;;25.81;74.68;100460.03;5058513;28;45448;-75
2023/08/25 01:35:15;;;;;;;;;7.75;7.75;;;;;25.83;74.22;100454.41;5058868;28;45573;-75
2023/08/25 01:37:57;;;;;;;;;8.75;8.75;;;;;25.83;74.30;100458.00;5058709;28;45362;-75
2023/08/25 01:40:30;;;;;;;;;9.25;8.50;;;;;25.81;74.56;100454.56;5056789;28;45496;-75
2023/08/25 01:42:55;;;;;;;;;9.00;9.00;;;;;25.74;74.38;100447.97;5058383;28;45613;-75
2023/08/25 01:45:23;;;;;;;;;11.00;10.50;;;;;25.80;74.56;100457.47;5057455;28;45744;-75
2023/08/25 01:47:50;;;;;;;;;9.75;9.75;;;;;25.64;74.53;100433.53;5052962;28;45585;-75
2023/08/25 01:50:18;;;;;;;;;11.50;9.25;;;;;25.79;74.90;100444.78;5058313;28;45298;-75
2023/08/25 01:52:43;;;;;;;;;9.00;8.75;;;;;25.71;75.04;100437.38;5062564;28;45350;-75
2023/08/25 01:55:08;;;;;;;;;10.00;10.00;;;;;25.70;75.12;100432.94;5058115;28;45358;-75
2023/08/25 01:57:34;;;;;;;;;8.25;8.25;;;;;25.67;75.36;100436.81;5057026;28;45599;-75
2023/08/25 01:59:59;;;;;;;;;9.00;9.00;;;;;25.61;74.96;100426.53;5054891;28;45741;-75
2023/08/25 02:02:24;;;;;;;;;11.00;10.00;;;;;25.71;75.34;100442.84;5052685;28;45997;-75
2023/08/25 02:04:50;;;;;;;;;11.75;10.50;;;;;25.62;75.17;100413.72;5073472;27;53971;-74
2023/08/25 02:07:15;;;;;;;;;9.00;9.00;;;;;25.61;75.24;100422.91;5058300;28;45660;-75
2023/08/25 02:09:41;;;;;;;;;11.75;10.25;;;;;25.61;75.29;100412.84;5058354;28;45493;-75
2023/08/25 02:12:06;;;;;;;;;12.00;12.00;;;;;25.57;75.69;100405.13;5056003;28;45908;-75
2023/08/25 02:14:32;;;;;;;;;11.75;11.75;;;;;25.65;75.54;100419.72;5054144;28;45657;-75
2023/08/25 02:16:57;;;;;;;;;10.00;10.00;;;;;25.49;75.06;100394.94;5058344;28;45476;-75
2023/08/25 02:19:22;;;;;;;;;13.00;11.75;;;;;25.54;75.83;100409.00;5058218;28;45472;-75
2023/08/25 02:21:48;;;;;;;;;10.75;9.50;;;;;25.43;75.66;100385.50;5056578;28;47306;-75
2023/08/25 02:24:13;;;;;;;;;10.50;10.00;;;;;25.40;75.67;100384.97;5056762;28;46209;-75
2023/08/25 02:26:39;;;;;;;;;9.25;9.25;;;;;25.52;75.68;100402.84;5058165;28;45456;-75
2023/08/25 02:29:06;;;;;;;;;9.50;9.00;;;;;25.46;76.07;100378.88;5049945;28;45605;-75
2023/08/25 02:31:31;;;;;;;;;9.75;9.75;;;;;25.53;76.56;100379.97;5058205;28;46277;-75
2023/08/25 02:33:56;;;;;;;;;11.75;11.75;;;;;25.46;75.97;100355.16;5057948;28;45357;-75
2023/08/25 02:36:22;;;;;;;;;9.25;9.25;;;;;25.39;76.33;100343.09;5058279;28;45315;-75
2023/08/25 02:38:47;;;;;;;;;9.75;9.00;;;;;25.45;75.99;100342.50;5057492;28;45567;-75
2023/08/25 02:41:12;;;;;;;;;10.25;10.25;;;;;25.49;76.53;100349.38;5056576;28;46925;-75
2023/08/25 02:43:38;;;;;;;;;11.00;8.50;;;;;25.41;76.57;100337.50;5054872;28;45341;-75
2023/08/25 02:46:03;;;;;;;;;11.25;9.75;;;;;25.36;76.51;100332.53;5056640;28;48707;-75
2023/08/25 02:48:28;;;;;;;;;12.00;10.75;;;;;25.36;76.53;100326.19;5073376;27;46859;-75
2023/08/25 02:50:54;;;;;;;;;12.00;9.75;;;;;25.42;76.25;100351.00;5073228;27;48435;-75
2023/08/25 02:53:19;;;;;;;;;10.00;10.00;;;;;25.35;77.03;100341.72;5061076;28;45455;-75
2023/08/25 02:55:46;;;;;;;;;10.25;10.25;;;;;25.23;76.45;100334.75;5060129;28;45406;-75
2023/08/25 02:58:11;;;;;;;;;9.75;9.75;;;;;25.36;76.40;100359.84;5059707;28;45665;-75
2023/08/25 03:00:39;;;;;;;;;13.00;11.25;;;;;25.20;77.22;100337.78;5061044;28;46002;-75
2023/08/25 03:03:05;;;;;;;;;11.50;10.75;;;;;25.16;77.17;100334.50;5052818;28;45440;-74
2023/08/25 03:05:30;;;;;;;;;11.75;11.50;;;;;25.14;77.43;100345.56;5061028;28;45270;-74
2023/08/25 03:07:55;;;;;;;;;13.75;12.00;;;;;25.32;77.04;100377.53;5060284;28;45409;-75
2023/08/25 03:10:21;;;;;;;;;12.00;12.00;;;;;25.27;77.53;100382.59;5061089;28;46277;-75
2023/08/25 03:12:46;;;;;;;;;10.75;10.75;;;;;25.15;77.09;100374.59;5057986;28;45368;-75
2023/08/25 03:15:12;;;;;;;;;13.00;12.50;;;;;25.19;77.63;100390.66;5061003;28;45914;-74
2023/08/25 03:17:37;;;;;;;;;13.50;11.25;;;;;25.28;77.54;100409.78;5060940;28;45507;-75
2023/08/25 03:20:03;;;;;;;;;14.00;13.00;;;;;25.33;77.93;100418.34;5060963;28;45318;-75
2023/08/25 03:22:29;;;;;;;;;11.25;11.25;;;;;25.35;78.03;100423.69;5059523;28;45474;-75
2023/08/25 03:24:54;;;;;;;;;11.25;10.75;;;;;25.23;77.68;100412.06;5076374;27;45402;-75
2023/08/25 03:27:19;;;;;;;;;13.50;11.75;;;;;25.37;77.79;100439.91;5074014;27;45727;-75
2023/08/25 03:29:45;;;;;;;;;13.00;10.25;;;;;25.25;77.42;100433.78;5060732;28;45474;-75
2023/08/25 03:32:10;;;;;;;;;15.00;12.75;;;;;25.38;77.71;100466.22;5056629;28;45409;-75
2023/08/25 03:34:36;;;;;;;;;10.75;9.75;;;;;25.29;77.84;100459.78;5066207;28;45369;-75
2023/08/25 03:37:02;;;;;;;;;11.00;10.00;;;;;25.41;77.29;100496.84;5059942;28;48372;-75
2023/08/25 03:39:28;;;;;;;;;13.25;13.25;;;;;25.36;78.14;100493.69;5060503;28;46177;-75
2023/08/25 03:41:53;;;;;;;;;19.25;17.50;;;;;25.28;78.02;100442.53;5055877;28;45402;-75
2023/08/25 03:44:18;;;;;;;;;21.00;19.50;;;;;25.39;78.06;100443.34;5059225;28;45406;-75
2023/08/25 03:46:45;;;;;;;;;17.25;15.50;;;;;25.38;77.76;100450.69;5060526;28;45384;-75
2023/08/25 03:49:10;;;;;;;;;13.50;13.50;;;;;25.20;77.71;100436.94;5060194;28;45373;-75
2023/08/25 03:51:35;;;;;;;;;12.50;11.00;;;;;25.25;77.89;100439.22;5075860;27;45353;-75
2023/08/25 03:54:01;;;;;;;;;12.25;12.25;;;;;25.31;77.44;100455.06;5060100;28;45421;-75
2023/08/25 03:56:27;;;;;;;;;12.00;11.00;;;;;25.34;77.58;100460.19;5059872;28;45412;-75
2023/08/25 03:58:52;;;;;;;;;11.50;10.50;;;;;25.30;78.18;100439.66;5056738;28;45433;-75
2023/08/25 04:01:17;;;;;;;;;11.75;11.00;;;;;25.17;77.83;100409.94;5065578;28;45509;-75
2023/08/25 04:03:43;;;;;;;;;12.00;11.50;;;;;25.30;77.98;100426.00;5059497;28;45306;-75
2023/08/25 04:06:08;;;;;;;;;11.75;9.50;;;;;25.20;78.16;100400.59;5075805;27;46016;-75
2023/08/25 04:08:33;;;;;;;;;9.75;9.25;;;;;25.22;78.01;100404.88;5059807;28;45516;-75
2023/08/25 04:10:59;;;;;;;;;10.00;10.00;;;;;25.09;78.00;100377.06;5059252;28;45313;-75
2023/08/25 04:13:24;;;;;;;;;9.00;8.25;;;;;25.09;77.98;100377.94;5067009;27;45424;-75
2023/08/25 04:15:56;;;;;;;;;10.00;10.00;;;;;25.16;77.92;100380.94;5060186;28;45722;-74
2023/08/25 04:18:22;;;;;;;;;10.00;9.00;;;;;25.19;77.68;100388.78;5058658;28;47108;-74
2023/08/25 04:20:48;;;;;;;;;7.00;7.00;;;;;25.19;77.97;100382.47;5058542;28;45329;-75
2023/08/25 04:23:13;;;;;;;;;8.50;8.50;;;;;25.05;78.06;100354.69;5059600;28;45407;-75
2023/08/25 04:25:38;;;;;;;;;10.25;9.00;;;;;25.07;78.09;100358.09;5057506;28;45577;-75
2023/08/25 04:28:04;;;;;;;;;11.00;9.75;;;;;25.06;78.31;100350.06;5055892;28;46232;-74
2023/08/25 04:30:29;;;;;;;;;12.75;10.00;;;;;25.01;77.62;100349.66;5059019;28;45465;-74
2023/08/25 04:32:55;;;;;;;;;10.50;10.50;;;;;25.05;78.48;100360.13;5059683;28;45461;-74
2023/08/25 04:35:20;;;;;;;;;10.25;10.25;;;;;25.03;77.85;100348.53;5059379;28;45475;-75
2023/08/25 04:37:50;;;;;;;;;12.00;11.00;;;;;25.14;77.91;100366.53;5059283;28;45465;-75
2023/08/25 04:40:16;;;;;;;;;9.00;9.00;;;;;25.03;77.71;100345.78;5059749;28;45398;-74
2023/08/25 04:42:42;;;;;;;;;10.25;10.25;;;;;25.10;78.31;100366.00;5058658;28;45406;-74
2023/08/25 04:45:12;;;;;;;;;12.75;12.75;;;;;25.11;78.61;100369.59;5058268;28;45496;-74
2023/08/25 04:47:38;;;;;;;;;13.75;12.75;;;;;24.98;78.65;100345.38;5058049;28;47024;-74
2023/08/25 04:50:07;;;;;;;;;14.25;14.00;;;;;25.09;78.74;100358.84;5059321;28;45484;-74
2023/08/25 04:52:36;;;;;;;;;19.25;18.50;;;;;25.07;79.13;100362.72;5074753;27;45400;-74
2023/08/25 04:55:05;;;;;;;;;21.50;20.25;;;;;25.05;78.90;100359.28;5057656;28;45588;-75
2023/08/25 04:57:31;;;;;;;;;19.00;19.00;;;;;25.08;79.57;100364.44;5057369;28;45308;-74
2023/08/25 04:59:57;;;;;;;;;26.25;24.50;;;;;25.01;79.20;100356.00;5058135;28;45422;-74
2023/08/25 05:02:23;;;;;;;;;32.50;30.50;;;;;24.93;79.16;100339.53;5054681;28;45370;-74
2023/08/25 05:04:48;;;;;;;;;28.00;27.50;;;;;24.90;79.37;100342.56;5058037;28;45466;-74
2023/08/25 05:07:14;;;;;;;;;29.25;29.00;;;;;24.91;80.41;100344.28;5058613;28;45413;-74
2023/08/25 05:09:39;;;;;;;;;26.00;26.00;;;;;24.90;79.81;100337.09;5059203;28;45393;-74
2023/08/25 05:12:05;;;;;;;;;27.25;24.50;;;;;24.93;80.03;100345.84;5058464;28;45471;-75
2023/08/25 05:14:30;;;;;;;;;36.00;32.00;;;;;24.85;79.88;100333.97;5053177;28;45432;-75
2023/08/25 05:16:55;;;;;;;;;31.00;30.25;;;;;24.84;80.17;100337.69;5063803;28;46990;-74
2023/08/25 05:19:21;;;;;;;;;33.25;31.50;;;;;24.96;80.83;100366.53;5056805;28;45326;-75
2023/08/25 05:21:46;;;;;;;;;34.00;31.50;;;;;24.78;80.77;100334.56;5073882;27;45474;-74
2023/08/25 05:24:17;;;;;;;;;35.25;31.50;;;;;24.92;80.51;100362.38;5058761;28;45428;-74
2023/08/25 05:26:43;;;;;;;;;33.25;31.50;;;;;24.94;80.82;100372.16;5048653;28;45890;-75
2023/08/25 05:29:09;;;;;;;;;36.50;32.75;;;;;24.93;80.96;100372.28;5057108;28;45372;-75
2023/08/25 05:31:34;;;;;;;;;33.25;31.00;;;;;25.01;81.05;100386.03;5058874;28;45285;-75
2023/08/25 05:34:00;;;;;;;;;36.75;32.25;;;;;24.93;80.37;100383.22;5058561;28;45479;-74
2023/08/25 05:36:25;;;;;;;;;36.75;33.75;;;;;24.90;80.85;100372.59;5056742;28;47090;-74
2023/08/25 05:38:50;;;;;;;;;35.50;32.25;;;;;24.83;80.86;100375.06;5058463;28;45357;-74
2023/08/25 05:41:16;;;;;;;;;32.25;31.00;;;;;24.98;81.19;100407.34;5053171;28;45423;-74
2023/08/25 05:43:41;;;;;;;;;32.25;29.75;;;;;24.99;80.94;100412.63;5056950;28;45385;-74
2023/08/25 05:46:06;;;;;;;;;35.75;32.50;;;;;25.01;80.82;100416.06;5058812;28;45423;-74
2023/08/25 05:48:32;;;;;;;;;38.00;34.00;;;;;24.96;81.01;100407.47;5057838;28;45657;-74
2023/08/25 05:50:57;;;;;;;;;34.50;30.25;;;;;25.00;81.41;100410.78;5058624;28;45378;-74
2023/08/25 05:53:22;;;;;;;;;35.25;33.00;;;;;25.04;80.93;100420.34;5056765;28;45397;-74
2023/08/25 05:55:49;;;;;;;;;31.00;29.50;;;;;25.07;80.63;100418.19;5058164;28;46216;-74
2023/08/25 05:58:15;;;;;;;;;39.50;33.50;;;;;24.92;81.57;100397.84;5073273;27;46049;-74
2023/08/25 06:00:40;;;;;;;;;46.00;37.00;;;;;24.91;81.16;100394.28;5058403;28;45376;-75
2023/08/25 06:03:05;;;;;;;;;42.75;37.00;;;;;24.90;81.47;100394.44;5053301;28;45290;-74
2023/08/25 06:05:31;;;;;;;;;44.50;37.00;;;;;25.07;81.63;100415.44;5055395;28;47764;-74
2023/08/25 06:07:56;;;;;;;;;43.00;36.00;;;;;24.92;81.35;100386.94;5056527;28;45798;-73
2023/08/25 06:10:22;;;;;;;;;42.25;35.75;;;;;24.78;80.98;100353.69;5059152;28;45372;-74
2023/08/25 06:12:47;;;;;;;;;45.50;36.75;;;;;24.88;81.23;100369.16;5073836;27;45649;-75
2023/08/25 06:15:13;;;;;;;;;46.25;39.25;;;;;24.81;81.56;100362.56;5058509;28;46687;-75
2023/08/25 06:17:38;;;;;;;;;43.00;36.25;;;;;25.01;81.54;100398.81;5055166;28;45641;-74
2023/08/25 06:20:04;;;;;;;;;40.25;36.25;;;;;24.90;81.78;100369.88;5056148;28;45352;-75
2023/08/25 06:22:30;;;;;;;;;48.00;38.25;;;;;24.78;80.90;100363.75;5058570;28;45419;-74
2023/08/25 06:24:55;;;;;;;;;44.50;37.50;;;;;24.81;81.30;100377.09;5056322;28;46127;-75
2023/08/25 06:27:20;;;;;;;;;40.50;35.75;;;;;24.70;81.19;100364.50;5061466;28;45514;-73
2023/08/25 06:29:46;;;;;;;;;44.25;37.50;;;;;24.69;80.95;100373.69;5061604;28;45488;-73
2023/08/25 06:32:14;;;;;;;;;42.25;37.00;;;;;24.90;80.74;100424.47;5071459;27;45543;-73
2023/08/25 06:34:39;;;;;;;;;42.75;37.00;;;;;24.60;81.15;100385.50;5080230;27;48509;-74
2023/08/25 06:37:05;;;;;;;;;44.00;38.00;;;;;24.51;81.27;100372.75;5057190;28;45396;-73
2023/08/25 06:39:30;;;;;;;;;45.50;36.50;;;;;24.71;80.90;100415.34;5074634;27;45346;-73
2023/08/25 06:41:55;;;;;;;;;41.75;35.50;;;;;24.68;81.07;100412.06;5060367;28;45468;-72
2023/08/25 06:44:21;;;;;;;;;41.00;34.25;;;;;24.66;80.79;100420.41;5038944;28;48403;-73
2023/08/25 06:46:46;;;;;;;;;32.75;32.25;;;;;24.70;80.86;100412.75;5052552;28;45430;-74
2023/08/25 06:49:19;;;;;;;;;41.75;36.75;;;;;24.53;80.61;100389.81;5063070;28;45537;-74
2023/08/25 06:51:44;;;;;;;;;41.75;34.25;;;;;24.53;80.65;100373.44;5061789;28;45743;-73
2023/08/25 06:54:09;;;;;;;;;34.50;32.50;;;;;24.62;80.42;100388.94;5057529;28;45414;-73
2023/08/25 06:56:35;;;;;;;;;46.00;35.50;;;;;24.65;81.25;100383.19;5053643;28;45411;-73
2023/08/25 06:59:00;;;;;;;;;42.50;35.00;;;;;24.78;80.65;100405.53;5072390;27;45396;-73
2023/08/25 07:01:25;;;;;;;;;42.00;35.50;;;;;24.62;80.67;100369.84;5059075;28;45529;-79
2023/08/25 07:03:51;;;;;;;;;33.75;29.50;;;;;24.83;80.89;100423.34;5053050;28;47038;-74
2023/08/25 07:06:16;;;;;;;;;33.75;30.50;;;;;24.77;80.43;100412.03;5051052;28;45409;-74
2023/08/25 07:08:42;;;;;;;;;34.50;32.25;;;;;24.52;80.52;100368.97;5055673;28;45628;-74
2023/08/25 07:11:07;;;;;;;;;26.25;25.25;;;;;24.71;80.55;100400.84;5052346;28;45370;-74
2023/08/25 07:13:35;;;;;;;;;31.50;28.50;;;;;24.83;80.89;100420.63;5058725;28;46991;-74
2023/08/25 07:16:03;;;;;;;;;30.50;28.75;;;;;24.54;80.20;100373.28;5053935;28;45624;-66
2023/08/25 07:18:28;;;;;;;;;30.00;28.00;;;;;24.75;80.83;100411.28;5057043;28;45539;-64
2023/08/25 07:20:53;;;;;;;;;27.50;23.75;;;;;24.75;80.54;100411.28;5054356;28;45524;-66
2023/08/25 07:23:19;;;;;;;;;29.25;25.75;;;;;24.60;80.51;100396.41;5056010;28;45979;-66
2023/08/25 07:25:44;;;;;;;;;27.00;25.00;;;;;24.71;80.11;100422.69;5056157;28;45445;-65
2023/08/25 07:28:10;;;;;;;;;24.50;22.75;;;;;24.72;80.08;100425.22;5058367;28;45322;-66
2023/08/25 07:30:39;;;;;;;;;30.00;26.50;;;;;24.74;80.48;100428.69;5057344;28;45613;-65
2023/08/25 07:33:06;;;;;;;;;25.25;23.25;;;;;24.67;80.47;100419.34;5059388;28;45591;-65
2023/08/25 07:35:37;;;;;;;;;29.00;24.75;;;;;24.71;80.66;100431.72;5059039;28;45617;-66
2023/08/25 07:38:04;;;;;;;;;20.75;20.50;;;;;24.66;80.27;100414.94;5049939;28;45449;-65
2023/08/25 07:40:31;;;;;;;;;31.00;21.25;;;;;24.67;80.37;100430.28;5057435;28;45602;-65
2023/08/25 07:43:01;;;;;;;;;22.50;20.75;;;;;24.65;79.60;100432.31;5057879;28;45781;-65
2023/08/25 07:45:28;;;;;;;;;17.75;17.75;;;;;24.51;80.04;100417.25;5058393;28;45387;-65
2023/08/25 07:47:55;;;;;;;;;20.25;18.50;;;;;24.54;80.02;100425.13;5058163;28;45359;-65
2023/08/25 07:50:21;;;;;;;;;18.00;17.00;;;;;24.60;79.73;100432.75;5059451;28;45407;-65
2023/08/25 07:52:46;;;;;;;;;18.50;18.50;;;;;24.66;79.71;100458.59;5064222;27;46153;-65
2023/08/25 07:55:12;;;;;;;;;15.75;15.25;;;;;24.57;79.91;100451.28;5057898;28;45543;-65
2023/08/25 07:57:37;;;;;;;;;21.00;16.75;;;;;24.59;79.80;100457.44;5057707;28;45433;-66
2023/08/25 08:00:04;;;;;;;;;13.50;13.50;;;;;24.53;79.31;100466.22;5056959;28;45454;-66
2023/08/25 08:02:30;;;;;;;;;18.00;17.00;;;;;24.50;78.84;100456.44;5053322;28;45532;-66
2023/08/25 08:04:55;;;;;;;;;19.00;15.75;;;;;24.58;79.58;100474.84;5059646;28;45407;-66
2023/08/25 08:07:21;;;;;;;;;12.75;12.75;;;;;24.55;78.97;100475.13;5053801;28;45444;-66
2023/08/25 08:09:46;;;;;;;;;20.25;18.00;;;;;24.59;79.01;100484.72;5060801;28;45504;-66
2023/08/25 08:12:11;;;;;;;;;18.25;15.50;;;;;24.57;79.56;100481.28;5055786;28;46924;-67
2023/08/25 08:14:37;;;;;;;;;20.25;18.00;;;;;24.51;78.95;100476.41;5053306;28;45370;-67
2023/08/25 08:17:03;;;;;;;;;17.00;14.75;;;;;24.61;79.13;100488.19;5056829;28;45798;-66
2023/08/25 08:19:28;;;;;;;;;14.50;14.50;;;;;24.41;79.02;100463.63;5059501;28;45441;-66
2023/08/25 08:21:54;;;;;;;;;14.00;14.00;;;;;24.60;79.43;100498.22;5058989;28;45991;-66
2023/08/25 08:24:21;;;;;;;;;15.00;13.75;;;;;24.56;79.31;100498.69;5060040;28;45662;-66
2023/08/25 08:26:46;;;;;;;;;18.25;18.25;;;;;24.54;78.95;100512.44;5065937;28;45612;-66
2023/08/25 08:29:12;;;;;;;;;16.00;14.25;;;;;24.36;79.39;100490.50;5055076;28;45645;-66
2023/08/25 08:31:37;;;;;;;;;14.50;13.50;;;;;24.50;79.69;100510.16;5055532;28;45368;-66
2023/08/25 08:34:03;;;;;;;;;9.50;9.50;;;;;24.44;79.83;100497.97;5059648;28;45552;-66
2023/08/25 08:36:28;;;;;;;;;13.75;12.50;;;;;24.50;79.52;100511.00;5053654;28;46326;-66
2023/08/25 08:38:53;;;;;;;;;14.00;13.25;;;;;24.52;78.80;100519.91;5058711;28;45615;-66
2023/08/25 08:41:20;;;;;;;;;13.75;12.50;;;;;24.44;79.80;100510.72;5060422;28;45440;-66
2023/08/25 08:43:50;;;;;;;;;9.00;8.00;;;;;24.50;79.03;100516.47;5059870;28;45302;-66
2023/08/25 08:46:18;;;;;;;;;11.00;9.00;;;;;24.50;79.21;100534.72;5069053;27;45522;-66
2023/08/25 08:48:44;;;;;;;;;6.50;6.00;;;;;24.51;79.81;100544.63;5050346;28;45514;-66
2023/08/25 08:51:14;;;;;;;;;5.50;5.00;;;;;24.43;79.77;100523.50;5054729;28;46173;-66
2023/08/25 08:53:41;;;;;;;;;4.00;4.00;;;;;24.46;79.52;100545.06;5053449;28;45640;-66
2023/08/25 08:56:07;;;;;;;;;4.75;3.50;;;;;24.47;79.15;100552.22;5054821;28;45821;-66
2023/08/25 08:58:33;;;;;;;;;2.25;2.00;;;;;24.39;78.94;100546.63;5058801;28;45555;-66
2023/08/25 09:00:59;;;;;;;;;2.75;2.75;;;;;24.12;79.09;100512.75;5053367;28;46236;-66
2023/08/25 09:03:32;;;;;;;;;4.00;2.00;;;;;24.21;78.84;100530.13;5051956;28;47090;-73
2023/08/25 09:06:03;;;;;;;;;2.00;2.00;;;;;24.25;79.06;100547.91;5053581;28;45563;-73
2023/08/25 09:08:30;;;;;;;;;4.00;3.00;;;;;24.16;79.31;100543.34;5054423;28;45579;-74
2023/08/25 09:11:02;;;;;;;;;3.00;3.00;;;;;24.14;79.53;100551.66;5053811;28;46283;-73
2023/08/25 09:13:30;;;;;;;;;0.00;0.00;;;;;24.01;79.25;100531.97;5055660;27;45512;-73
2023/08/25 09:15:56;;;;;;;;;1.50;1.50;;;;;24.18;79.56;100574.91;5050751;28;45537;-74
2023/08/25 09:18:21;;;;;;;;;1.75;1.75;;;;;24.05;78.75;100550.63;5067337;27;45915;-74
2023/08/25 09:20:47;;;;;;;;;3.00;1.75;;;;;23.93;78.75;100538.13;5056790;28;46790;-74
2023/08/25 09:23:12;;;;;;;;;1.00;1.00;;;;;24.04;78.49;100562.56;5054220;28;45483;-74
2023/08/25 09:25:41;;;;;;;;;3.50;2.00;;;;;24.07;77.46;100568.72;5052462;28;45459;-74
2023/08/25 09:28:06;;;;;;;;;4.00;1.00;;;;;24.05;77.15;100574.31;5051719;28;46074;-74
2023/08/25 09:30:36;;;;;;;;;0.75;0.75;;;;;24.21;77.28;100603.75;5070747;27;47070;-73
2023/08/25 09:33:04;;;;;;;;;2.00;2.00;;;;;24.18;77.28;100596.72;5048006;28;45469;-74
2023/08/25 09:35:29;;;;;;;;;1.50;1.00;;;;;24.04;77.16;100576.19;5054042;28;45698;-73
2023/08/25 09:37:55;;;;;;;;;2.00;2.00;;;;;24.12;76.98;100591.81;5053434;28;45424;-73
2023/08/25 09:40:20;;;;;;;;;1.25;1.25;;;;;24.15;77.00;100601.59;5050987;28;46024;-74
2023/08/25 09:42:45;;;;;;;;;2.00;2.00;;;;;24.10;76.69;100599.28;5051120;28;45733;-73
2023/08/25 09:45:11;;;;;;;;;2.00;2.00;;;;;24.08;76.73;100603.16;5053281;28;45472;-73
2023/08/25 09:47:43;;;;;;;;;0.75;0.75;;;;;24.08;76.89;100595.00;5053589;28;45817;-74
2023/08/25 09:50:13;;;;;;;;;1.00;1.00;;;;;24.04;77.28;100605.31;5050892;28;47828;-74
2023/08/25 09:52:43;;;;;;;;;3.00;2.00;;;;;24.04;76.49;100606.19;5053239;28;45652;-74
2023/08/25 09:55:09;;;;;;;;;3.00;2.00;;;;;24.03;76.38;100607.16;5051238;28;45475;-74
2023/08/25 09:57:37;;;;;;;;;2.00;2.00;;;;;24.00;76.53;100606.59;5051389;28;45670;-74
2023/08/25 10:00:08;;;;;;;;;2.25;2.00;;;;;24.00;76.34;100612.88;5054470;28;46187;-73
2023/08/25 10:02:34;;;;;;;;;1.50;1.50;;;;;23.89;76.54;100596.69;5043465;28;45705;-73
2023/08/25 10:05:03;;;;;;;;;3.75;2.50;;;;;23.94;76.67;100598.97;5056565;28;45530;-74
2023/08/25 10:07:31;;;;;;;;;4.50;3.00;;;;;23.95;76.32;100595.25;5053606;28;45516;-74
2023/08/25 10:09:56;;;;;;;;;3.50;2.00;;;;;23.98;76.15;100601.28;5070064;27;47412;-73
2023/08/25 10:12:23;;;;;;;;;1.75;1.75;;;;;23.98;75.55;100600.41;5056396;28;45620;-73
2023/08/25 10:14:52;;;;;;;;;2.00;2.00;;;;;23.92;75.28;100588.19;5052196;28;45374;-74
2023/08/25 10:17:18;;;;;;;;;2.00;2.00;;;;;23.95;75.58;100595.25;5053898;28;45793;-73
2023/08/25 10:19:47;;;;;;;;;4.00;3.00;;;;;23.95;74.83;100585.19;5052059;28;46294;-73
2023/08/25 10:22:13;;;;;;;;;2.75;1.50;;;;;23.96;75.36;100588.81;5050186;28;45650;-73
2023/08/25 10:24:40;;;;;;;;;3.00;3.00;;;;;23.97;75.21;100594.13;5059438;28;45478;-74
2023/08/25 10:27:07;;;;;;;;;2.50;2.50;;;;;24.00;74.79;100601.13;5051479;28;45692;-74
2023/08/25 10:29:33;;;;;;;;;4.50;1.75;;;;;23.99;74.25;100605.72;5051558;28;46294;-73
2023/08/25 10:32:00;;;;;;;;;1.25;1.25;;;;;23.95;74.41;100601.53;5061725;28;46163;-74
2023/08/25 10:34:45;;;;;;;;;3.00;3.00;;;;;24.01;74.61;100605.59;5055349;28;45500;-74
2023/08/25 10:37:13;;;;;;;;;2.25;2.25;;;;;24.05;74.71;100615.19;5068003;27;45958;-74
2023/08/25 10:39:50;;;;;;;;;3.00;3.00;;;;;24.01;74.01;100617.34;5050326;28;46246;-73
2023/08/25 10:42:24;;;;;;;;;4.25;3.00;;;;;24.00;74.12;100614.75;5069986;27;45354;-73
2023/08/25 10:44:54;;;;;;;;;3.50;2.50;;;;;23.93;73.86;100609.00;5052588;28;46256;-73
2023/08/25 10:47:21;;;;;;;;;3.50;3.50;;;;;23.95;73.34;100623.34;5070676;27;45693;-73
2023/08/25 10:49:46;;;;;;;;;3.25;3.25;;;;;23.96;73.41;100618.78;5054356;28;45457;-73
2023/08/25 10:52:16;;;;;;;;;3.75;3.25;;;;;23.98;73.56;100627.69;5053322;28;45511;-73
2023/08/25 10:54:44;;;;;;;;;4.00;3.00;;;;;23.98;73.51;100625.81;5055286;28;45374;-73
2023/08/25 10:57:29;;;;;;;;;3.00;2.50;;;;;23.97;73.41;100617.75;5070994;27;47265;-73
2023/08/25 10:59:56;;;;;;;;;5.75;5.00;;;;;23.97;73.43;100620.50;5045804;28;46144;-73
2023/08/25 11:02:37;;;;;;;;;4.00;4.00;;;;;23.96;73.11;100632.41;5052733;28;45672;-73
2023/08/25 11:05:31;;;;;;;;;6.75;4.75;;;;;23.92;73.33;100629.09;5054182;28;45415;-73
2023/08/25 11:08:00;;;;;;;;;5.50;5.50;;;;;23.90;73.29;100630.25;5050892;28;45582;-73
2023/08/25 11:10:29;;;;;;;;;4.50;4.50;;;;;23.91;73.31;100627.38;5049752;28;45581;-73
2023/08/25 11:12:54;;;;;;;;;3.75;3.75;;;;;23.92;73.59;100626.34;5054654;28;45755;-73